createdAt,value
2022-11-24T07:28:31.063Z,18.63
2022-11-24T07:30:58.690Z,17.70
2022-11-24T07:33:27.586Z,19.65
2022-11-24T07:35:54.571Z,18.13
2022-11-24T07:38:21.475Z,16.93
2022-11-24T07:40:48.143Z,18.70
2022-11-24T07:43:20.035Z,18.95
2022-11-24T07:45:52.617Z,21.15
2022-11-24T07:48:20.606Z,20.27
2022-11-24T07:50:52.544Z,17.33
2022-11-24T07:53:22.123Z,19.58
2022-11-24T07:56:02.518Z,19.38
2022-11-24T07:58:32.962Z,18.38
2022-11-24T08:01:01.054Z,19.83
2022-11-24T08:03:27.978Z,20.20
2022-11-24T08:08:46.587Z,20.23
2022-11-24T08:11:15.610Z,18.65
2022-11-24T08:13:42.656Z,19.33
2022-11-24T08:16:11.630Z,19.77
2022-11-24T08:18:39.028Z,20.70
2022-11-24T08:21:06.355Z,19.83
2022-11-24T08:23:33.174Z,19.58
2022-11-24T08:26:05.161Z,19.67
2022-11-24T08:28:32.518Z,19.87
2022-11-24T08:31:10.026Z,20.00
2022-11-24T08:33:37.299Z,20.35
2022-11-24T08:36:09.329Z,20.48
2022-11-24T08:38:36.103Z,20.60
2022-11-24T08:41:08.780Z,21.20
2022-11-24T08:43:35.525Z,19.95
2022-11-24T08:46:05.052Z,21.90
2022-11-24T08:48:32.235Z,20.52
2022-11-24T08:50:59.367Z,20.63
2022-11-24T08:53:26.082Z,18.17
2022-11-24T08:55:53.031Z,20.75
2022-11-24T08:58:20.884Z,21.15
2022-11-24T09:00:47.576Z,21.60
2022-11-24T09:03:14.597Z,20.40
2022-11-24T09:05:51.567Z,19.17
2022-11-24T09:08:18.664Z,20.45
2022-11-24T09:10:45.335Z,22.17
2022-11-24T09:13:12.155Z,22.00
2022-11-24T09:15:38.783Z,21.63
2022-11-24T09:18:05.527Z,19.90
2022-11-24T09:20:32.315Z,19.15
2022-11-24T09:22:59.000Z,20.95
2022-11-24T09:25:25.662Z,20.05
2022-11-24T09:27:52.478Z,19.48
2022-11-24T09:30:20.392Z,19.70
2022-11-24T09:32:47.097Z,18.98
2022-11-24T09:35:13.705Z,19.17
2022-11-24T09:37:40.442Z,19.70
2022-11-24T09:40:08.003Z,18.40
2022-11-24T09:42:52.086Z,19.83
2022-11-24T09:46:04.574Z,20.38
2022-11-24T09:48:39.464Z,19.00
2022-11-24T09:51:10.635Z,19.40
2022-11-24T09:53:44.738Z,17.40
2022-11-24T09:56:25.231Z,19.10
2022-11-24T09:59:02.705Z,17.23
2022-11-24T10:01:36.253Z,18.77
2022-11-24T10:04:06.353Z,19.02
2022-11-24T10:06:44.403Z,18.40
2022-11-24T10:09:45.342Z,17.30
2022-11-24T10:12:36.176Z,17.90
2022-11-24T10:15:25.640Z,17.00
2022-11-24T10:17:55.312Z,18.45
2022-11-24T10:20:31.123Z,16.70
2022-11-24T10:23:09.708Z,17.50
2022-11-24T10:25:36.323Z,18.20
2022-11-24T10:28:05.200Z,17.58
2022-11-24T10:30:31.908Z,16.83
2022-11-24T10:33:03.063Z,17.08
2022-11-24T10:35:40.910Z,18.63
2022-11-24T10:38:16.810Z,18.25
2022-11-24T10:40:58.083Z,16.25
2022-11-24T10:43:29.472Z,16.95
2022-11-24T10:46:10.843Z,17.20
2022-11-24T10:49:23.836Z,15.93
2022-11-24T10:52:14.167Z,14.98
2022-11-24T10:55:07.477Z,15.05
2022-11-24T10:57:36.928Z,15.35
2022-11-24T11:00:34.202Z,14.50
2022-11-24T11:03:15.110Z,13.73
2022-11-24T11:05:44.012Z,13.85
2022-11-24T11:08:14.585Z,12.82
2022-11-24T11:10:43.954Z,13.27
2022-11-24T11:13:30.308Z,14.82
2022-11-24T11:15:58.350Z,14.73
2022-11-24T11:18:33.319Z,14.07
2022-11-24T11:21:04.977Z,13.75
2022-11-24T11:23:33.999Z,14.38
2022-11-24T11:26:22.580Z,14.93
2022-11-24T11:35:01.708Z,13.95
2022-11-24T11:37:31.482Z,13.02
2022-11-24T11:39:58.466Z,13.95
2022-11-24T11:45:33.844Z,12.77
2022-11-24T11:48:24.414Z,12.68
2022-11-24T11:51:22.146Z,11.80
2022-11-24T11:54:22.411Z,11.05
2022-11-24T11:56:52.987Z,10.90
2022-11-24T12:00:10.007Z,12.30
2022-11-24T12:02:53.664Z,12.77
2022-11-24T12:05:33.527Z,12.05
2022-11-24T12:08:11.544Z,11.90
2022-11-24T12:10:42.730Z,10.97
2022-11-24T12:13:28.267Z,11.48
2022-11-24T12:15:57.038Z,12.70
2022-11-24T12:18:56.022Z,12.80
2022-11-24T12:21:21.318Z,11.45
2022-11-24T12:23:57.556Z,11.67
2022-11-24T12:26:45.449Z,11.50
2022-11-24T12:29:27.145Z,12.60
2022-11-24T12:32:19.704Z,12.20
2022-11-24T12:34:54.497Z,11.38
2022-11-24T12:37:38.194Z,11.80
2022-11-24T12:40:08.866Z,12.50
2022-11-24T12:43:19.235Z,12.02
2022-11-24T12:45:48.756Z,12.30
2022-11-24T12:49:03.406Z,11.50
2022-11-24T12:51:40.378Z,10.53
2022-11-24T15:08:55.692Z,11.57
2022-11-24T15:11:22.714Z,13.00
2022-11-24T15:13:54.648Z,12.90
2022-11-24T15:16:23.538Z,12.38
2022-11-24T15:18:58.949Z,12.10
2022-11-24T15:21:36.908Z,13.35
2022-11-24T15:24:16.063Z,13.40
2022-11-24T15:26:43.444Z,11.38
2022-11-24T15:29:11.248Z,12.55
2022-11-24T15:31:44.190Z,12.38
2022-11-24T15:34:14.606Z,12.32
2022-11-24T15:36:41.299Z,11.33
2022-11-24T15:39:08.026Z,11.93
2022-11-24T15:41:34.884Z,11.13
2022-11-24T15:44:01.788Z,11.27
2022-11-24T15:49:28.758Z,11.47
2022-11-24T15:51:55.439Z,11.65
2022-11-24T15:54:22.200Z,11.18
2022-11-24T15:56:48.932Z,11.63
2022-11-24T15:59:20.162Z,12.07
2022-11-24T16:01:49.581Z,12.10
2022-11-24T16:04:16.634Z,12.60
2022-11-24T16:06:43.347Z,12.65
2022-11-24T16:09:15.907Z,12.23
2022-11-24T16:11:42.782Z,12.07
2022-11-24T16:14:09.735Z,12.30
2022-11-24T16:16:36.561Z,13.55
2022-11-24T16:19:03.454Z,12.43
2022-11-24T16:21:30.089Z,14.05
2022-11-24T16:23:56.735Z,13.68
2022-11-24T16:26:23.426Z,14.07
2022-11-24T16:28:50.129Z,12.95
2022-11-24T16:31:17.993Z,14.45
2022-11-24T16:33:46.198Z,13.88
2022-11-24T16:36:13.858Z,14.25
2022-11-24T16:38:40.914Z,14.60
2022-11-24T16:41:10.255Z,14.40
2022-11-24T16:43:37.321Z,14.05
2022-11-24T16:46:18.921Z,12.77
2022-11-24T16:48:47.028Z,13.20
2022-11-24T16:51:14.574Z,14.10
2022-11-24T16:53:41.460Z,13.40
2022-11-24T16:56:08.615Z,11.95
2022-11-24T16:58:39.802Z,13.05
2022-11-24T17:01:11.279Z,12.20
2022-11-24T17:03:38.604Z,12.03
2022-11-24T17:06:07.489Z,12.38
2022-11-24T17:08:36.722Z,12.68
2022-11-24T17:11:14.217Z,12.43
2022-11-24T17:13:41.709Z,13.13
2022-11-24T17:16:10.844Z,12.50
2022-11-24T17:18:38.857Z,12.90
2022-11-24T17:21:09.755Z,12.93
2022-11-24T17:23:37.136Z,12.88
2022-11-24T17:26:05.764Z,12.35
2022-11-24T17:28:32.501Z,13.07
2022-11-24T17:30:59.403Z,12.20
2022-11-24T17:33:28.251Z,13.32
2022-11-24T17:35:56.009Z,14.45
2022-11-24T17:38:22.730Z,12.38
2022-11-24T17:40:49.342Z,11.63
2022-11-24T17:43:15.994Z,12.43
2022-11-24T17:45:42.952Z,11.25
2022-11-24T17:48:09.667Z,12.23
2022-11-24T17:50:36.298Z,12.70
2022-11-24T17:53:02.943Z,12.17
2022-11-24T17:55:29.588Z,10.55
2022-11-24T17:57:56.589Z,11.27
2022-11-24T18:00:23.483Z,11.68
2022-11-24T18:02:50.170Z,11.50
2022-11-24T18:05:16.889Z,12.17
2022-11-24T18:07:43.551Z,12.23
2022-11-24T18:10:10.822Z,12.43
2022-11-24T18:12:37.490Z,13.05
2022-11-24T18:15:04.576Z,13.77
2022-11-24T18:17:31.286Z,13.10
2022-11-24T18:19:58.018Z,14.13
2022-11-24T18:22:50.052Z,14.00
2022-11-24T18:25:11.466Z,13.65
2022-11-24T18:27:38.224Z,12.82
2022-11-24T18:30:05.980Z,13.73
2022-11-24T18:32:32.794Z,14.98
2022-11-24T18:34:59.461Z,14.55
2022-11-24T18:37:26.165Z,12.52
2022-11-24T18:39:53.846Z,14.48
2022-11-24T18:42:21.640Z,13.33
2022-11-24T18:44:52.590Z,14.05
2022-11-24T18:47:20.746Z,14.18
2022-11-24T18:49:47.501Z,12.90
2022-11-24T18:52:14.167Z,13.73
2022-11-24T18:54:40.861Z,14.30
2022-11-24T18:57:07.562Z,12.63
2022-11-24T18:59:34.238Z,12.20
2022-11-24T19:02:01.029Z,12.35
2022-11-24T19:04:27.834Z,11.85
2022-11-24T19:06:54.538Z,13.30
2022-11-24T19:09:22.764Z,13.73
2022-11-24T19:11:49.693Z,13.65
2022-11-24T19:14:17.867Z,13.80
2022-11-24T19:16:46.293Z,13.80
2022-11-24T19:19:13.066Z,14.67
2022-11-24T19:21:40.327Z,14.15
2022-11-24T19:24:10.133Z,13.10
2022-11-24T19:26:37.930Z,12.10
2022-11-24T19:29:05.534Z,12.90
2022-11-24T19:31:33.429Z,12.45
2022-11-24T19:34:00.774Z,11.82
2022-11-24T19:36:27.551Z,12.52
2022-11-24T19:38:55.837Z,11.77
2022-11-24T19:41:26.007Z,14.68
2022-11-24T19:43:56.420Z,13.43
2022-11-24T19:46:27.063Z,11.70
2022-11-24T19:48:56.172Z,12.32
2022-11-24T19:51:25.975Z,11.90
2022-11-24T19:53:53.432Z,13.25
2022-11-24T19:56:21.893Z,11.93
2022-11-24T19:58:50.162Z,13.20
2022-11-24T20:01:21.925Z,12.75
2022-11-24T20:03:54.958Z,14.50
2022-11-24T20:06:21.734Z,13.25
2022-11-24T20:08:48.443Z,12.90
2022-11-24T20:11:16.699Z,14.13
2022-11-24T20:13:44.895Z,13.30
2022-11-24T20:16:14.281Z,12.88
2022-11-24T20:18:43.959Z,13.05
2022-11-24T20:21:11.476Z,13.87
2022-11-24T20:23:38.720Z,14.68
2022-11-24T20:26:11.301Z,14.57
2022-11-24T20:28:38.230Z,14.60
2022-11-24T20:31:07.511Z,15.98
2022-11-24T20:33:35.109Z,16.52
2022-11-24T20:36:04.210Z,16.95
2022-11-24T20:38:30.994Z,15.82
2022-11-24T20:41:09.021Z,14.77
2022-11-24T20:43:36.774Z,16.58
2022-11-24T20:46:05.733Z,15.15
2022-11-24T20:48:34.242Z,14.73
2022-11-24T20:51:09.605Z,14.50
2022-11-24T20:53:36.646Z,15.68
2022-11-24T20:56:07.268Z,14.75
2022-11-24T20:58:35.184Z,14.07
2022-11-24T21:01:09.282Z,15.65
2022-11-24T21:03:41.406Z,15.68
2022-11-24T21:06:10.689Z,14.00
2022-11-24T21:11:06.733Z,14.80
2022-11-24T21:13:35.194Z,14.77
2022-11-24T21:16:14.062Z,14.93
2022-11-24T21:18:41.285Z,14.05
2022-11-24T21:21:08.277Z,13.63
2022-11-24T21:23:35.111Z,15.20
2022-11-24T21:26:05.560Z,14.02
2022-11-24T21:28:33.506Z,13.95
2022-11-24T21:31:04.945Z,14.52
2022-11-24T21:33:31.720Z,13.50
2022-11-24T21:36:05.737Z,14.13
2022-11-24T21:38:32.674Z,15.50
2022-11-24T21:41:03.656Z,15.10
2022-11-24T21:43:31.198Z,14.40
2022-11-24T21:46:08.788Z,14.30
2022-11-24T21:48:36.691Z,14.57
2022-11-24T21:51:05.773Z,14.05
2022-11-24T21:53:36.989Z,14.10
2022-11-24T21:56:12.984Z,13.93
2022-11-24T21:58:57.266Z,14.30
2022-11-24T22:01:27.237Z,12.57
2022-11-24T22:03:55.400Z,13.80
2022-11-24T22:06:22.238Z,14.45
2022-11-24T22:08:49.697Z,13.63
2022-11-24T22:11:18.948Z,13.40
2022-11-24T22:13:46.147Z,13.27
2022-11-24T22:16:15.876Z,14.45
2022-11-24T22:18:43.486Z,14.55
2022-11-24T22:21:12.623Z,15.13
2022-11-24T22:23:39.739Z,15.07
2022-11-24T22:26:18.369Z,13.73
2022-11-24T22:28:45.809Z,14.57
2022-11-24T22:31:14.981Z,14.23
2022-11-24T22:33:41.875Z,15.25
2022-11-24T22:36:09.847Z,14.77
2022-11-24T22:38:36.949Z,14.30
2022-11-24T22:41:08.129Z,14.40
2022-11-24T22:43:36.089Z,13.93
2022-11-24T22:46:07.629Z,14.82
2022-11-24T22:48:34.835Z,14.15
2022-11-24T22:51:05.855Z,14.03
2022-11-24T22:53:32.743Z,13.98
2022-11-24T22:56:04.586Z,13.43
2022-11-24T22:58:32.906Z,14.13
2022-11-24T23:01:12.838Z,14.32
2022-11-24T23:03:40.339Z,13.68
2022-11-24T23:06:11.943Z,13.15
2022-11-24T23:08:39.249Z,13.50
2022-11-24T23:11:08.805Z,14.40
2022-11-24T23:13:35.634Z,14.25
2022-11-24T23:16:07.447Z,15.13
2022-11-24T23:18:34.831Z,14.43
2022-11-24T23:21:18.951Z,14.13
2022-11-24T23:23:46.166Z,14.25
2022-11-24T23:26:15.811Z,13.45
2022-11-24T23:28:43.323Z,14.48
2022-11-24T23:31:15.133Z,13.50
2022-11-24T23:33:42.310Z,14.45
2022-11-24T23:36:11.382Z,13.27
2022-11-24T23:38:38.202Z,13.68
2022-11-24T23:41:07.063Z,16.00
2022-11-24T23:43:34.839Z,13.40
2022-11-24T23:46:06.052Z,14.35
2022-11-24T23:48:33.421Z,14.00
2022-11-24T23:51:07.538Z,15.10
2022-11-24T23:53:36.149Z,13.70
2022-11-24T23:56:03.298Z,14.77
2022-11-24T23:58:30.551Z,13.80
